createdAt,value
2023-04-18T00:01:44.682Z,3.50
2023-04-18T00:04:13.986Z,4.07
2023-04-18T00:06:41.753Z,4.18
2023-04-18T00:09:09.042Z,2.78
2023-04-18T00:11:36.497Z,4.32
2023-04-18T00:14:06.335Z,2.97
2023-04-18T00:16:33.637Z,3.55
2023-04-18T00:19:02.387Z,4.75
2023-04-18T00:21:30.172Z,3.75
2023-04-18T00:23:57.560Z,3.08
2023-04-18T00:26:24.919Z,4.62
2023-04-18T00:28:53.596Z,3.30
2023-04-18T00:31:20.732Z,3.80
2023-04-18T00:33:48.190Z,4.50
2023-04-18T00:36:15.834Z,3.83
2023-04-18T00:38:42.955Z,3.62
2023-04-18T00:41:10.284Z,13.38
2023-04-18T00:43:38.544Z,3.67
2023-04-18T00:46:06.373Z,3.20
2023-04-18T00:48:34.138Z,3.55
2023-04-18T00:51:01.950Z,6.75
2023-04-18T00:53:29.500Z,4.57
2023-04-18T00:55:57.400Z,3.20
2023-04-18T00:58:24.848Z,3.45
2023-04-18T01:00:52.230Z,4.72
2023-04-18T01:03:20.009Z,3.35
2023-04-18T01:05:47.245Z,3.40
2023-04-18T01:08:14.642Z,3.97
2023-04-18T01:10:42.108Z,4.60
2023-04-18T01:13:16.031Z,5.72
2023-04-18T01:15:45.181Z,4.43
2023-04-18T01:18:13.358Z,4.87
2023-04-18T01:20:45.860Z,4.12
2023-04-18T01:23:16.388Z,5.55
2023-04-18T01:25:44.459Z,5.10
2023-04-18T01:28:13.790Z,4.12
2023-04-18T01:30:41.482Z,3.15
2023-04-18T01:33:08.779Z,4.18
2023-04-18T01:35:36.068Z,4.43
2023-04-18T01:38:03.596Z,6.37
2023-04-18T01:40:30.773Z,3.72
2023-04-18T01:42:57.915Z,4.45
2023-04-18T01:45:25.501Z,4.87
2023-04-18T01:47:52.748Z,4.75
2023-04-18T01:50:20.009Z,5.32
2023-04-18T01:52:48.130Z,5.87
2023-04-18T01:55:16.367Z,6.15
2023-04-18T01:57:44.214Z,4.80
2023-04-18T02:00:12.403Z,9.20
2023-04-18T02:02:41.758Z,5.18
2023-04-18T02:05:09.567Z,5.40
2023-04-18T02:07:38.692Z,4.05
2023-04-18T02:10:06.627Z,7.93
2023-04-18T02:12:34.405Z,5.40
2023-04-18T02:15:01.803Z,6.62
2023-04-18T02:17:29.449Z,6.43
2023-04-18T02:19:56.676Z,6.68
2023-04-18T02:22:26.054Z,6.82
2023-04-18T02:24:53.751Z,5.50
2023-04-18T02:27:20.958Z,6.82
2023-04-18T02:29:48.130Z,7.85
2023-04-18T02:32:15.597Z,5.82
2023-04-18T02:34:44.444Z,7.00
2023-04-18T02:37:11.611Z,5.90
2023-04-18T02:39:40.179Z,5.30
2023-04-18T02:42:07.413Z,7.95
2023-04-18T02:44:34.588Z,5.60
2023-04-18T02:47:02.109Z,6.80
2023-04-18T02:49:30.166Z,6.53
2023-04-18T02:51:58.239Z,7.78
2023-04-18T02:54:25.664Z,8.77
2023-04-18T02:56:54.500Z,7.35
2023-04-18T02:59:22.280Z,5.68
2023-04-18T03:01:52.559Z,8.75
2023-04-18T03:04:20.309Z,4.62
2023-04-18T03:06:49.046Z,6.05
2023-04-18T03:09:18.094Z,5.22
2023-04-18T03:11:47.485Z,8.15
2023-04-18T03:14:15.629Z,5.78
2023-04-18T03:16:44.041Z,6.57
2023-04-18T03:19:12.635Z,5.85
2023-04-18T03:21:39.970Z,6.95
2023-04-18T03:24:10.224Z,7.60
2023-04-18T03:26:39.404Z,5.43
2023-04-18T03:29:09.781Z,11.90
2023-04-18T03:31:37.428Z,8.73
2023-04-18T03:34:04.553Z,10.13
2023-04-18T03:36:32.209Z,8.73
2023-04-18T03:38:59.726Z,6.82
2023-04-18T03:41:27.091Z,7.12
2023-04-18T03:43:55.128Z,9.30
2023-04-18T03:46:23.005Z,10.68
2023-04-18T03:48:50.735Z,6.97
2023-04-18T03:51:17.815Z,8.07
2023-04-18T03:53:46.628Z,11.25
2023-04-18T03:56:13.871Z,11.73
2023-04-18T03:58:42.203Z,13.18
2023-04-18T04:01:09.620Z,10.35
2023-04-18T04:03:37.520Z,9.43
2023-04-18T04:06:05.502Z,11.35
2023-04-18T04:08:33.853Z,9.45
2023-04-18T04:11:01.978Z,9.05
2023-04-18T04:13:29.497Z,12.55
2023-04-18T04:15:57.299Z,10.48
2023-04-18T04:18:31.011Z,8.80
2023-04-18T04:20:59.259Z,9.05
2023-04-18T04:23:27.950Z,7.45
2023-04-18T04:25:56.001Z,9.55
2023-04-18T04:28:24.683Z,8.45
2023-04-18T04:30:53.246Z,9.02
2023-04-18T04:33:22.171Z,6.50
2023-04-18T04:35:49.859Z,8.82
2023-04-18T04:38:20.069Z,8.27
2023-04-18T04:40:47.588Z,8.23
2023-04-18T04:43:15.736Z,6.93
2023-04-18T04:45:44.740Z,8.88
2023-04-18T04:48:12.528Z,9.48
2023-04-18T04:50:41.897Z,8.70
2023-04-18T04:53:11.901Z,9.60
2023-04-18T04:55:39.511Z,11.80
2023-04-18T04:58:07.267Z,14.93
2023-04-18T05:00:35.292Z,13.13
2023-04-18T05:03:02.638Z,8.85
2023-04-18T05:05:30.491Z,9.00
2023-04-18T05:07:58.128Z,7.47
2023-04-18T05:10:25.612Z,7.78
2023-04-18T05:12:52.856Z,9.75
2023-04-18T05:15:20.859Z,9.15
2023-04-18T05:17:48.106Z,10.23
2023-04-18T05:20:16.092Z,8.02
2023-04-18T05:22:43.500Z,7.93
2023-04-18T05:25:10.754Z,7.57
2023-04-18T05:27:38.227Z,7.32
2023-04-18T05:30:06.457Z,11.30
2023-04-18T05:32:33.750Z,12.48
2023-04-18T05:35:00.917Z,9.55
2023-04-18T05:37:28.363Z,9.55
2023-04-18T05:39:55.557Z,9.27
2023-04-18T05:42:23.024Z,11.70
2023-04-18T05:44:50.635Z,8.20
2023-04-18T05:47:17.953Z,10.32
2023-04-18T05:49:45.128Z,12.60
2023-04-18T05:52:12.669Z,7.37
2023-04-18T05:54:39.835Z,6.90
2023-04-18T05:57:06.904Z,10.85
2023-04-18T05:59:34.547Z,7.53
2023-04-18T06:02:02.081Z,13.65
2023-04-18T06:04:29.879Z,9.25
2023-04-18T06:06:57.170Z,9.88
2023-04-18T06:09:24.329Z,10.90
2023-04-18T06:11:51.764Z,13.18
2023-04-18T06:14:18.870Z,11.15
2023-04-18T06:16:46.103Z,11.05
2023-04-18T06:19:13.514Z,11.80
2023-04-18T06:21:42.820Z,11.52
2023-04-18T06:24:10.535Z,19.92
2023-04-18T06:26:38.135Z,9.88
2023-04-18T06:29:05.341Z,12.63
2023-04-18T06:31:32.638Z,10.55
2023-04-18T06:34:00.096Z,10.07
2023-04-18T06:36:27.558Z,7.15
2023-04-18T06:38:54.848Z,7.68
2023-04-18T06:41:22.883Z,9.93
2023-04-18T06:44:02.613Z,7.45
2023-04-18T06:46:32.805Z,5.47
2023-04-18T06:49:00.563Z,5.45
2023-04-18T06:51:28.052Z,5.03
2023-04-18T06:53:55.718Z,7.97
2023-04-18T06:56:23.006Z,4.97
2023-04-18T06:58:50.212Z,8.25
2023-04-18T07:01:20.370Z,9.18
2023-04-18T07:03:47.755Z,6.05
2023-04-18T07:06:15.334Z,8.88
2023-04-18T07:08:42.808Z,9.35
2023-04-18T07:11:11.622Z,4.47
2023-04-18T07:13:38.958Z,8.98
2023-04-18T07:16:07.311Z,4.00
2023-04-18T07:18:37.945Z,3.92
2023-04-18T07:21:09.198Z,4.15
2023-04-18T07:23:36.898Z,5.60
2023-04-18T07:26:05.859Z,6.10
2023-04-18T07:28:33.308Z,8.02
2023-04-18T07:31:03.194Z,9.48
2023-04-18T07:33:33.961Z,6.23
2023-04-18T07:36:01.917Z,5.72
2023-04-18T07:38:30.318Z,5.35
2023-04-18T07:41:01.926Z,9.30
2023-04-18T07:43:29.474Z,10.82
2023-04-18T07:45:56.694Z,4.97
2023-04-18T07:48:25.253Z,5.47
2023-04-18T07:50:53.372Z,9.95
2023-04-18T07:53:20.759Z,4.28
2023-04-18T07:55:48.197Z,9.95
2023-04-18T07:58:17.090Z,6.90
2023-04-18T08:00:45.038Z,10.05
2023-04-18T08:03:13.231Z,7.65
2023-04-18T08:05:42.317Z,5.05
2023-04-18T08:08:11.501Z,7.87
2023-04-18T08:10:39.416Z,5.68
2023-04-18T08:13:06.974Z,6.20
2023-04-18T08:15:34.337Z,4.62
2023-04-18T08:18:02.298Z,5.80
2023-04-18T08:20:29.526Z,6.20
2023-04-18T08:23:06.878Z,3.62
2023-04-18T08:25:36.618Z,4.82
2023-04-18T08:31:35.240Z,10.23
2023-04-18T08:34:04.977Z,3.05
2023-04-18T08:36:32.416Z,6.17
2023-04-18T08:38:59.766Z,8.95
2023-04-18T08:41:28.805Z,6.03
2023-04-18T08:43:57.153Z,5.15
2023-04-18T08:46:24.586Z,4.57
2023-04-18T08:48:52.657Z,6.45
2023-04-18T08:51:22.639Z,3.62
2023-04-18T08:53:50.777Z,5.05
2023-04-18T08:56:22.416Z,8.50
2023-04-18T08:58:50.664Z,2.33
2023-04-18T09:01:18.428Z,2.85
2023-04-18T09:03:45.750Z,3.47
2023-04-18T09:06:18.779Z,8.30
2023-04-18T09:09:02.794Z,5.05
2023-04-18T09:11:31.831Z,8.40
2023-04-18T09:13:59.600Z,3.62
2023-04-18T09:19:56.783Z,4.55
2023-04-18T09:22:24.363Z,4.80
2023-04-18T09:24:55.557Z,4.15
2023-04-18T09:30:42.347Z,2.67
2023-04-18T09:36:41.049Z,5.28
2023-04-18T09:39:09.311Z,5.80
2023-04-18T09:41:36.696Z,2.90
2023-04-18T09:44:17.218Z,9.10
2023-04-18T09:46:47.443Z,2.95
2023-04-18T09:49:16.187Z,12.20
2023-04-18T09:51:44.539Z,2.53
2023-04-18T09:54:15.959Z,7.95
2023-04-18T09:56:44.655Z,4.68
2023-04-18T09:59:12.955Z,6.95
2023-04-18T10:01:41.312Z,9.98
2023-04-18T10:04:09.822Z,3.20
2023-04-18T10:06:39.866Z,3.55
2023-04-18T10:09:08.708Z,2.45
2023-04-18T10:11:36.668Z,7.43
2023-04-18T10:14:07.175Z,2.45
2023-04-18T10:16:37.939Z,3.67
2023-04-18T10:19:25.242Z,4.30
2023-04-18T10:22:07.436Z,8.45
2023-04-18T10:25:16.297Z,5.20
2023-04-18T10:27:50.116Z,4.18
2023-04-18T10:30:19.215Z,3.20
2023-04-18T10:32:46.835Z,5.65
2023-04-18T10:35:15.999Z,2.42
2023-04-18T10:37:52.998Z,4.70
2023-04-18T10:40:34.535Z,3.78
2023-04-18T10:43:02.105Z,5.18
2023-04-18T10:45:32.566Z,6.90
2023-04-18T10:48:23.115Z,3.40
2023-04-18T10:51:13.392Z,3.10
2023-04-18T10:53:51.110Z,5.72
2023-04-18T10:56:18.902Z,7.70
2023-04-18T10:58:52.563Z,3.67
2023-04-18T11:01:31.754Z,4.15
2023-04-18T11:04:00.425Z,7.68
2023-04-18T11:09:11.777Z,4.53
2023-04-18T11:11:39.861Z,2.95
2023-04-18T11:14:07.268Z,2.25
2023-04-18T11:16:35.098Z,3.10
2023-04-18T11:19:23.716Z,5.78
2023-04-18T11:21:51.868Z,12.93
2023-04-18T11:24:24.541Z,5.25
2023-04-18T11:26:56.042Z,3.22
2023-04-18T11:29:23.981Z,5.18
2023-04-18T11:31:55.278Z,6.37
2023-04-18T11:34:30.699Z,4.72
2023-04-18T11:36:58.009Z,5.55
2023-04-18T11:39:26.082Z,5.50
2023-04-18T11:41:55.885Z,3.65
2023-04-18T11:44:24.911Z,5.18
2023-04-18T11:46:53.486Z,7.00
2023-04-18T11:49:32.139Z,5.78
2023-04-18T11:52:00.095Z,3.78
2023-04-18T11:54:40.699Z,4.05
2023-04-18T11:57:20.657Z,4.25
2023-04-18T11:59:50.171Z,6.35
2023-04-18T12:02:18.077Z,5.50
2023-04-18T12:04:58.863Z,9.25
2023-04-18T12:07:40.440Z,7.22
2023-04-18T12:10:10.133Z,5.93
2023-04-18T12:12:37.327Z,7.35
2023-04-18T12:15:09.534Z,6.43
2023-04-18T12:17:38.527Z,11.12
2023-04-18T12:20:12.595Z,9.23
2023-04-18T12:22:49.096Z,9.93
2023-04-18T12:25:27.122Z,5.87
2023-04-18T12:27:59.036Z,2.15
2023-04-18T12:30:31.070Z,3.62
2023-04-18T12:33:01.160Z,4.18
2023-04-18T12:35:32.132Z,4.70
2023-04-18T12:38:01.269Z,6.80
2023-04-18T12:40:29.877Z,4.78
2023-04-18T12:42:57.209Z,7.78
2023-04-18T12:45:25.215Z,8.45
2023-04-18T12:47:53.429Z,6.32
2023-04-18T12:50:25.347Z,3.03
2023-04-18T12:52:54.549Z,7.63
2023-04-18T12:55:22.901Z,3.05
2023-04-18T12:57:54.301Z,2.65
2023-04-18T13:00:24.947Z,1.02
2023-04-18T13:05:22.388Z,4.00
2023-04-18T13:07:56.220Z,2.10
2023-04-18T13:10:32.671Z,7.82
2023-04-18T13:13:00.551Z,5.97
2023-04-18T13:15:27.837Z,3.70
2023-04-18T13:17:56.699Z,2.92
2023-04-18T13:20:24.590Z,2.20
2023-04-18T13:22:51.806Z,5.50
2023-04-18T13:25:18.969Z,4.95
2023-04-18T13:27:46.703Z,6.07
2023-04-18T13:30:13.993Z,3.00
2023-04-18T13:32:43.196Z,6.05
2023-04-18T13:35:11.600Z,4.32
2023-04-18T13:37:39.663Z,6.60
2023-04-18T13:40:08.063Z,8.43
2023-04-18T13:42:39.542Z,3.05
2023-04-18T13:45:07.506Z,3.92
2023-04-18T13:47:37.860Z,10.10
2023-04-18T13:50:10.031Z,5.90
2023-04-18T13:52:37.591Z,4.32
2023-04-18T13:55:05.336Z,3.17
2023-04-18T13:57:36.370Z,2.42
2023-04-18T14:00:06.473Z,7.65
2023-04-18T14:02:39.065Z,7.97
2023-04-18T14:05:07.551Z,1.40
2023-04-18T14:07:35.831Z,7.90
2023-04-18T14:10:03.345Z,2.70
2023-04-18T14:12:31.425Z,11.52
2023-04-18T14:14:58.676Z,3.50
2023-04-18T14:17:26.079Z,6.78
2023-04-18T14:19:53.648Z,8.45
2023-04-18T14:22:20.892Z,6.68
2023-04-18T14:24:51.150Z,4.97
2023-04-18T14:27:18.874Z,3.10
2023-04-18T14:29:46.486Z,3.17
2023-04-18T14:32:13.755Z,8.07
2023-04-18T14:34:41.225Z,7.18
2023-04-18T14:37:08.573Z,10.20
2023-04-18T14:39:36.264Z,7.57
2023-04-18T14:42:03.941Z,5.82
2023-04-18T14:44:31.634Z,2.70
2023-04-18T14:46:58.874Z,5.37
2023-04-18T14:49:26.468Z,5.65
2023-04-18T14:51:56.539Z,9.32
2023-04-18T14:54:23.782Z,6.37
2023-04-18T14:56:51.701Z,2.50
2023-04-18T14:59:19.236Z,8.90
2023-04-18T15:01:46.905Z,7.05
2023-04-18T15:04:15.044Z,6.45
2023-04-18T15:06:42.579Z,6.35
2023-04-18T15:09:09.700Z,10.02
2023-04-18T15:11:37.550Z,5.78
2023-04-18T15:14:04.814Z,4.25
2023-04-18T15:16:32.212Z,4.05
2023-04-18T15:19:00.477Z,8.30
2023-04-18T15:21:27.770Z,8.63
2023-04-18T15:23:55.009Z,5.93
2023-04-18T15:26:22.465Z,4.70
2023-04-18T15:28:49.928Z,5.70
2023-04-18T15:32:56.116Z,6.25
2023-04-18T15:35:24.446Z,8.80
2023-04-18T15:37:53.785Z,3.87
2023-04-18T15:40:21.022Z,4.72
2023-04-18T15:42:51.050Z,4.65
2023-04-18T15:45:18.712Z,10.07
2023-04-18T15:47:46.171Z,11.18
2023-04-18T15:50:16.409Z,3.85
2023-04-18T15:52:44.121Z,2.85
2023-04-18T15:55:13.232Z,4.90
2023-04-18T15:57:41.876Z,3.58
2023-04-18T16:00:20.911Z,5.43
2023-04-18T16:02:48.768Z,3.80
2023-04-18T16:05:16.320Z,7.00
2023-04-18T16:07:43.954Z,4.00
2023-04-18T16:10:12.962Z,4.35
2023-04-18T16:12:40.750Z,4.05
2023-04-18T16:15:10.137Z,3.00
2023-04-18T16:17:38.280Z,5.95
2023-04-18T16:20:08.314Z,7.47
2023-04-18T16:22:36.652Z,6.70
2023-04-18T16:25:07.480Z,5.72
2023-04-18T16:27:34.725Z,7.28
2023-04-18T16:30:03.243Z,5.37
2023-04-18T16:32:31.087Z,14.35
2023-04-18T16:34:58.668Z,10.68
2023-04-18T16:37:26.080Z,8.00
2023-04-18T16:39:53.722Z,8.98
2023-04-18T16:42:21.194Z,5.87
2023-04-18T16:44:48.754Z,9.85
2023-04-18T16:47:16.339Z,7.20
2023-04-18T16:49:44.954Z,5.53
2023-04-18T16:52:12.238Z,10.23
2023-04-18T16:54:40.372Z,8.20
2023-04-18T16:57:09.797Z,15.63
2023-04-18T16:59:37.095Z,6.43
2023-04-18T17:02:04.725Z,4.12
2023-04-18T17:04:32.266Z,14.25
2023-04-18T17:07:00.811Z,11.98
2023-04-18T17:09:28.634Z,16.45
2023-04-18T17:11:56.337Z,9.15
2023-04-18T17:14:23.950Z,6.53
2023-04-18T17:16:53.520Z,6.62
2023-04-18T17:19:21.444Z,4.90
2023-04-18T17:21:51.027Z,6.07
2023-04-18T17:24:19.280Z,10.85
2023-04-18T17:26:48.014Z,7.47
2023-04-18T17:29:16.379Z,7.50
2023-04-18T17:31:45.286Z,14.40
2023-04-18T17:34:13.234Z,11.30
2023-04-18T17:36:40.757Z,25.42
2023-04-18T17:39:09.721Z,21.25
2023-04-18T17:41:39.236Z,10.50
2023-04-18T17:44:08.480Z,7.93
2023-04-18T17:46:37.012Z,16.08
2023-04-18T17:49:05.504Z,14.00
2023-04-18T17:51:33.406Z,16.87
2023-04-18T17:54:04.464Z,16.58
2023-04-18T17:56:33.126Z,24.55
2023-04-18T17:59:02.446Z,23.90
2023-04-18T18:05:03.849Z,26.42
2023-04-18T18:07:37.936Z,25.83
2023-04-18T18:10:12.773Z,26.45
2023-04-18T18:12:42.944Z,34.78
2023-04-18T18:15:11.705Z,29.80
2023-04-18T18:17:39.436Z,21.23
2023-04-18T18:20:10.152Z,20.35
2023-04-18T18:22:38.284Z,30.50
2023-04-18T18:25:09.375Z,28.40
2023-04-18T18:27:37.538Z,24.48
2023-04-18T18:30:08.844Z,30.08
2023-04-18T18:32:40.621Z,30.00
2023-04-18T18:35:11.122Z,33.72
2023-04-18T18:37:42.898Z,34.63
2023-04-18T18:40:16.042Z,31.67
2023-04-18T18:42:45.300Z,35.65
2023-04-18T18:45:13.724Z,40.92
2023-04-18T18:47:41.306Z,37.90
2023-04-18T18:50:13.340Z,68.95
2023-04-18T18:52:46.080Z,41.30
2023-04-18T18:55:18.021Z,34.35
2023-04-18T18:57:50.117Z,28.17
2023-04-18T19:00:21.224Z,21.70
2023-04-18T19:02:49.187Z,23.83
2023-04-18T19:05:22.693Z,30.88
2023-04-18T19:07:51.999Z,31.42
2023-04-18T19:10:26.123Z,39.65
2023-04-18T19:12:54.069Z,29.17
2023-04-18T19:15:23.360Z,34.55
2023-04-18T19:21:23.107Z,30.73
2023-04-18T19:23:57.694Z,7.05
2023-04-18T19:26:26.008Z,9.70
2023-04-18T19:28:54.712Z,7.25
2023-04-18T19:31:28.443Z,8.70
2023-04-18T19:33:58.268Z,7.87
2023-04-18T19:42:27.431Z,6.68
2023-04-18T19:44:56.323Z,9.45
2023-04-18T19:47:24.688Z,7.45
2023-04-18T19:53:12.523Z,9.90
2023-04-18T19:55:45.855Z,7.03
2023-04-18T19:58:35.292Z,9.30
2023-04-18T20:01:08.900Z,4.90
2023-04-18T20:03:37.691Z,5.18
2023-04-18T20:06:06.893Z,9.30
2023-04-18T20:08:36.974Z,7.47
2023-04-18T20:11:08.344Z,6.30
2023-04-18T20:13:37.500Z,5.60
2023-04-18T20:16:09.624Z,6.47
2023-04-18T20:18:39.972Z,13.05
2023-04-18T20:21:11.316Z,6.82
2023-04-18T20:23:42.746Z,8.77
2023-04-18T20:26:11.086Z,12.27
2023-04-18T20:28:39.276Z,10.05
2023-04-18T20:31:07.763Z,7.43
2023-04-18T20:33:38.057Z,8.45
2023-04-18T20:36:07.113Z,7.68
2023-04-18T20:38:35.142Z,10.18
2023-04-18T20:41:04.360Z,6.95
2023-04-18T20:43:37.386Z,12.85
2023-04-18T20:46:07.927Z,5.30
2023-04-18T20:48:36.000Z,10.85
2023-04-18T20:51:03.625Z,18.37
2023-04-18T20:53:32.160Z,11.10
2023-04-18T20:56:05.551Z,12.60
2023-04-18T20:58:33.316Z,7.47
2023-04-18T21:01:00.540Z,7.55
2023-04-18T21:03:28.469Z,15.40
2023-04-18T21:05:56.207Z,7.05
2023-04-18T21:08:23.467Z,7.22
2023-04-18T21:10:50.677Z,16.25
2023-04-18T21:13:18.115Z,9.98
2023-04-18T21:15:45.388Z,7.25
2023-04-18T21:18:12.627Z,9.82
2023-04-18T21:20:40.067Z,5.62
2023-04-18T21:23:07.296Z,12.10
2023-04-18T21:25:34.522Z,4.22
2023-04-18T21:28:02.468Z,4.72
2023-04-18T21:30:29.712Z,5.85
2023-04-18T21:32:57.035Z,4.80
2023-04-18T21:35:25.104Z,6.95
2023-04-18T21:37:52.383Z,4.22
2023-04-18T21:40:19.687Z,6.97
2023-04-18T21:42:48.159Z,4.00
2023-04-18T21:45:17.627Z,5.65
2023-04-18T21:47:44.827Z,5.05
2023-04-18T21:53:43.195Z,4.03
2023-04-18T21:56:11.080Z,6.35
2023-04-18T21:58:38.413Z,4.15
2023-04-18T22:01:05.714Z,4.57
2023-04-18T22:03:34.242Z,9.13
2023-04-18T22:06:01.799Z,7.25
2023-04-18T22:08:29.592Z,6.32
2023-04-18T22:10:59.050Z,9.80
2023-04-18T22:13:33.266Z,5.20
2023-04-18T22:16:04.903Z,4.68
2023-04-18T22:18:34.044Z,5.10
2023-04-18T22:21:03.376Z,5.10
2023-04-18T22:23:30.872Z,4.72
2023-04-18T22:25:58.149Z,5.43
2023-04-18T22:28:27.959Z,5.32
2023-04-18T22:30:55.426Z,4.85
2023-04-18T22:33:22.654Z,5.45
2023-04-18T22:35:50.391Z,7.22
2023-04-18T22:38:17.651Z,18.37
2023-04-18T22:40:44.891Z,5.75
2023-04-18T22:43:12.433Z,5.60
2023-04-18T22:45:39.943Z,8.95
2023-04-18T22:48:11.428Z,5.70
2023-04-18T22:50:42.700Z,3.58
2023-04-18T22:53:14.404Z,7.10
2023-04-18T22:55:43.479Z,8.50
2023-04-18T22:58:11.408Z,3.78
2023-04-18T23:00:38.609Z,3.62
2023-04-18T23:03:06.318Z,5.62
2023-04-18T23:05:34.417Z,7.47
2023-04-18T23:08:01.913Z,6.47
2023-04-18T23:10:29.464Z,7.37
2023-04-18T23:12:57.015Z,4.65
2023-04-18T23:15:26.296Z,6.20
2023-04-18T23:17:54.277Z,5.95
2023-04-18T23:20:21.899Z,5.05
2023-04-18T23:22:51.592Z,5.03
2023-04-18T23:25:22.589Z,3.85
2023-04-18T23:27:50.005Z,5.10
2023-04-18T23:30:17.350Z,3.67
2023-04-18T23:32:44.908Z,3.87
2023-04-18T23:35:12.161Z,3.62
2023-04-18T23:37:39.332Z,6.53
2023-04-18T23:40:08.091Z,5.97
2023-04-18T23:42:35.867Z,4.18
2023-04-18T23:45:04.141Z,4.32
2023-04-18T23:47:31.875Z,6.87
2023-04-18T23:49:59.078Z,9.65
2023-04-18T23:52:26.220Z,7.97
2023-04-18T23:54:53.786Z,3.42
2023-04-18T23:57:21.050Z,4.75
2023-04-18T23:59:48.259Z,6.95
